• Join FlightAware (Why Join?)
  • Login
  • US Flag 
04:17PM EDT


 

Airport Tracker/Info


-or-


 

Live Flight TrackerFlight Track Log ✈ N904BC ✈ 03-Jul-2013 ✈ KARV - KPWK

Flight Track Log - Related Links

Times and Time Zones

All times are in EDT time to prevent confusion due to time zone crossing. See the N904BC flight status page for this flight to view local times or setup timezone preferences in your user account.

Time Position Orientation Groundspeed Altitude Reporting Facility
EDT Latitude Longitude Course Direction KTS MPH feet Rate Location/Type
09:37PM 45.9061 -89.7233 134° Southeast 110 127 2,700  Level Minneapolis Center
09:38PM 45.8800 -89.6847 134° Southeast 130 150 3,500 720 Climbing Minneapolis Center
09:39PM 45.8483 -89.6511 144° Southeast 136 157 4,300 720 Climbing Minneapolis Center
09:40PM 45.8097 -89.6264 156° South 147 169 5,000 720 Climbing Minneapolis Center
09:41PM 45.7747 -89.5903 144° Southeast 151 174 5,800 840 Climbing Minneapolis Center
09:42PM 45.7319 -89.5478 145° Southeast 154 177 6,800 840 Climbing Minneapolis Center
09:43PM 45.6950 -89.5161 149° Southeast 156 180 7,600 780 Climbing Minneapolis Center
09:44PM 45.6583 -89.4833 148° Southeast 155 178 8,400 780 Climbing Minneapolis Center
09:45PM 45.6203 -89.4514 150° Southeast 158 182 9,200 720 Climbing Minneapolis Center
09:46PM 45.5786 -89.4278 158° South 160 184 10,000 780 Climbing Minneapolis Center
09:47PM 45.5372 -89.4011 156° South 163 188 10,800 720 Climbing Minneapolis Center
09:48PM 45.4944 -89.3764 158° South 164 189 11,500 780 Climbing Minneapolis Center
09:49PM 45.4436 -89.3494 160° South 163 188 12,500 840 Climbing Minneapolis Center
09:50PM 45.4022 -89.3261 158° South 161 185 13,300 780 Climbing Minneapolis Center
09:51PM 45.3611 -89.3050 160° South 158 182 14,100 720 Climbing Minneapolis Center
09:52PM 45.3200 -89.2828 159° South 158 182 14,800 420 Climbing Minneapolis Center
09:53PM 45.2758 -89.2592 159° South 168 193 15,000 60 Climbing Minneapolis Center
09:54PM 45.2267 -89.2322 159° South 186 214 15,000  Level Minneapolis Center
09:55PM 45.1764 -89.2031 158° South 194 223 15,000  Level Minneapolis Center
09:56PM 45.1261 -89.1722 157° South 195 224 15,000  Level Minneapolis Center
09:57PM 45.0642 -89.1381 159° South 199 229 15,000  Level Minneapolis Center
09:58PM 45.0136 -89.1108 159° South 194 223 15,000  Level Minneapolis Center
09:59PM 44.9611 -89.0836 160° South 198 228 15,000  Level Minneapolis Center
10:00PM 44.9100 -89.0542 158° South 198 228 15,000  Level Minneapolis Center
10:01PM 44.8589 -89.0244 158° South 199 229 15,000  Level Minneapolis Center
10:02PM 44.8094 -88.9972 159° South 193 222 15,000  Level Minneapolis Center
10:03PM 44.7600 -88.9669 156° South 193 222 15,000  Level Minneapolis Center
10:04PM 44.7092 -88.9400 159° South 195 224 15,000  Level Minneapolis Center
10:05PM 44.6511 -88.9089 159° South 191 220 15,000  Level Minneapolis Center
10:06PM 44.5997 -88.8828 160° South 195 224 15,000  Level Minneapolis Center
10:07PM 44.5492 -88.8536 158° South 195 224 15,000  Level Minneapolis Center
10:09PM 44.4997 -88.8289 160° South 191 220 15,000  Level Minneapolis Center
10:10PM 44.4489 -88.8014 159° South 194 223 15,000  Level Minneapolis Center
10:11PM 44.3981 -88.7783 162° South 192 221 15,000  Level Minneapolis Center
10:12PM 44.3469 -88.7508 159° South 194 223 15,000  Level Minneapolis Center
10:13PM 44.2961 -88.7225 158° South 195 224 15,000  Level Minneapolis Center
10:14PM 44.2364 -88.6861 156° South 200 230 15,000  Level Minneapolis Center
10:15PM 44.1864 -88.6567 157° South 197 227 15,000  Level Minneapolis Center
10:16PM 44.1425 -88.6356 161° South 198 228 15,000  Level Minneapolis Center
10:17PM 44.0828 -88.6067 161° South 197 227 15,000  Level Chicago Center
10:18PM 44.0319 -88.5758 156° South 197 227 15,000  Level Chicago Center
10:19PM 43.9828 -88.5425 154° Southeast 196 226 15,000 -180 Level Chicago Center
10:20PM 43.9317 -88.5072 154° Southeast 200 230 14,700 -600 Descending Chicago Center
10:21PM 43.8772 -88.4703 154° Southeast 214 246 13,900 -840 Descending Chicago Center
10:22PM 43.8208 -88.4314 154° Southeast 224 258 13,000 -900 Descending Chicago Center
10:23PM 43.7656 -88.3869 150° Southeast 227 261 12,100 -960 Descending Chicago Center
10:24PM 43.7033 -88.3714 170° South 226 260 11,100 -600 Descending Chicago Center
10:25PM 43.6439 -88.3608 173° South 219 252 11,000 -60 Descending Chicago Center
10:26PM 43.5903 -88.3408 165° South 202 232 11,000  Level Chicago Center
10:27PM 43.5389 -88.3206 164° South 194 223 11,000  Level Chicago Center
10:28PM 43.4869 -88.3039 167° South 189 217 11,000  Level Chicago Center
10:29PM 43.4344 -88.2908 170° South 189 217 11,000  Level Chicago Center
10:30PM 43.3739 -88.2744 169° South 188 216 11,000  Level Chicago Center
10:31PM 43.3225 -88.2547 164° South 190 219 11,000  Level Chicago Center
10:32PM 43.2725 -88.2400 168° South 185 213 11,000  Level Chicago Center
10:33PM 43.2214 -88.2242 167° South 185 213 11,000  Level Chicago Center
10:34PM 43.1731 -88.1992 159° South 187 215 11,000  Level Chicago Center
10:35PM 43.1217 -88.2019 182° South 183 211 11,000  Level Chicago Center
10:36PM 43.0703 -88.1886 169° South 188 216 11,000 -180 Level Chicago Center
10:37PM 43.0211 -88.1678 163° South 186 214 10,700 -480 Descending Chicago Center
10:38PM 42.9658 -88.1511 168° South 201 231 10,100 -660 Descending Chicago Center
10:39PM 42.9078 -88.1361 169° South 209 241 9,400 -660 Descending Chicago Center
10:40PM 42.8508 -88.1183 167° South 210 242 8,800 -660 Descending Chicago Center
10:41PM 42.7953 -88.0975 165° South 208 239 8,100 -780 Descending Chicago Center
10:42PM 42.7303 -88.0783 168° South 205 236 7,300 -840 Descending Chicago Center
10:43PM 42.6733 -88.0661 171° South 207 238 6,500 -780 Descending Chicago Center
10:44PM 42.6175 -88.0486 167° South 205 236 5,800 -780 Descending Chicago Center
10:45PM 42.5622 -88.0311 167° South 204 235 5,000 -840 Descending Chicago Center
10:46PM 42.5072 -88.0167 169° South 201 231 4,200 -540 Descending Chicago Center
10:47PM 42.4556 -87.9944 162° South 197 227 4,000 -180 Descending Chicago Center
10:48PM 42.4078 -87.9864 173° South 180 207 3,900 -300 Descending Chicago Center
10:49PM 42.3606 -87.9889 182° South 171 197 3,500 -420 Descending Chicago Center
10:50PM 42.3097 -88.0008 190° South 176 203 3,100 -300 Descending Chicago Center
10:51PM 42.2650 -87.9914 171° South 173 199 2,900 -360 Descending Chicago Center
10:52PM 42.2239 -87.9572 148° Southeast 174 200 2,400 -480 Descending Chicago Center
10:53PM 42.1814 -87.9394 163° South 169 194 2,000 -540 Descending Chicago Center
10:54PM 42.1453 -87.9181 156° South 154 177 1,400 -600 Descending Chicago Center
10:56PM 42.1143 -87.9015 160° South  Level Estimated